createdAt,value
2023-01-30T00:01:35.793Z,3.30
2023-01-30T00:04:05.865Z,3.30
2023-01-30T00:06:34.707Z,3.40
2023-01-30T00:09:03.303Z,3.40
2023-01-30T00:11:33.408Z,3.40
2023-01-30T00:14:02.161Z,3.40
2023-01-30T00:16:30.786Z,3.40
2023-01-30T00:18:59.548Z,3.40
2023-01-30T00:21:29.465Z,3.40
2023-01-30T00:23:59.954Z,3.40
2023-01-30T00:26:28.744Z,3.40
2023-01-30T00:28:57.282Z,3.40
2023-01-30T00:31:26.411Z,3.40
2023-01-30T00:33:54.906Z,3.40
2023-01-30T00:36:25.388Z,3.40
2023-01-30T00:38:59.232Z,3.40
2023-01-30T00:41:48.458Z,3.40
2023-01-30T00:44:30.940Z,3.40
2023-01-30T00:47:09.285Z,3.40
2023-01-30T00:49:38.438Z,3.40
2023-01-30T00:52:07.349Z,3.50
2023-01-30T00:54:37.463Z,3.50
2023-01-30T00:57:06.117Z,3.50
2023-01-30T00:59:34.850Z,3.50
2023-01-30T01:02:03.502Z,3.50
2023-01-30T01:04:32.196Z,3.50
2023-01-30T01:07:00.701Z,3.50
2023-01-30T01:09:29.393Z,3.50
2023-01-30T01:11:59.313Z,3.50
2023-01-30T01:14:27.991Z,3.50
2023-01-30T01:16:56.682Z,3.60
2023-01-30T01:19:25.671Z,3.60
2023-01-30T01:21:55.237Z,3.60
2023-01-30T01:24:23.787Z,3.60
2023-01-30T01:26:52.722Z,3.60
2023-01-30T01:29:22.963Z,3.70
2023-01-30T01:31:52.280Z,3.60
2023-01-30T01:34:20.812Z,3.60
2023-01-30T01:36:54.321Z,3.60
2023-01-30T01:39:23.974Z,3.70
2023-01-30T01:41:53.756Z,3.70
2023-01-30T01:44:26.802Z,3.70
2023-01-30T01:46:59.265Z,3.70
2023-01-30T01:49:31.031Z,3.70
2023-01-30T01:52:05.258Z,3.60
2023-01-30T01:54:40.634Z,3.70
2023-01-30T01:57:13.799Z,3.80
2023-01-30T01:59:51.389Z,3.70
2023-01-30T02:02:21.561Z,3.70
2023-01-30T02:05:04.714Z,3.70
2023-01-30T02:07:38.341Z,3.70
2023-01-30T02:10:09.841Z,3.70
2023-01-30T02:12:39.480Z,3.70
2023-01-30T02:15:10.415Z,3.70
2023-01-30T02:17:41.304Z,3.70
2023-01-30T02:20:20.372Z,3.70
2023-01-30T02:23:32.486Z,3.70
2023-01-30T02:26:53.563Z,3.70
2023-01-30T02:29:50.103Z,3.80
2023-01-30T02:32:31.091Z,3.80
2023-01-30T02:35:08.691Z,3.80
2023-01-30T02:37:48.645Z,3.90
2023-01-30T02:40:31.794Z,3.80
2023-01-30T02:43:09.604Z,3.90
2023-01-30T02:45:43.485Z,3.90
2023-01-30T02:48:18.627Z,3.80
2023-01-30T02:50:50.686Z,3.80
2023-01-30T02:53:19.235Z,3.80
2023-01-30T02:55:48.322Z,3.80
2023-01-30T02:58:23.543Z,3.80
2023-01-30T03:01:11.674Z,3.80
2023-01-30T03:04:01.138Z,3.80
2023-01-30T03:06:50.387Z,3.80
2023-01-30T03:09:31.575Z,3.80
2023-01-30T03:12:08.392Z,3.80
2023-01-30T03:14:46.923Z,3.80
2023-01-30T03:17:19.733Z,3.80
2023-01-30T03:19:50.145Z,3.70
2023-01-30T03:22:18.852Z,3.60
2023-01-30T03:24:47.513Z,3.60
2023-01-30T03:27:19.731Z,3.50
2023-01-30T03:29:49.597Z,3.50
2023-01-30T03:32:19.185Z,3.40
2023-01-30T03:34:49.212Z,3.40
2023-01-30T03:37:17.894Z,3.30
2023-01-30T03:39:46.624Z,3.30
2023-01-30T03:42:17.349Z,3.20
2023-01-30T03:44:45.998Z,3.20
2023-01-30T03:47:14.975Z,3.20
2023-01-30T03:49:45.868Z,3.20
2023-01-30T03:52:15.870Z,3.20
2023-01-30T03:54:44.463Z,3.20
2023-01-30T03:57:13.247Z,3.20
2023-01-30T03:59:43.744Z,3.20
2023-01-30T04:02:15.584Z,3.20
2023-01-30T04:04:46.357Z,3.20
2023-01-30T04:07:16.584Z,3.20
2023-01-30T04:09:47.184Z,3.30
2023-01-30T04:12:16.364Z,3.30
2023-01-30T04:14:53.747Z,3.20
2023-01-30T04:17:44.042Z,3.30
2023-01-30T04:20:32.979Z,3.30
2023-01-30T04:23:03.587Z,3.30
2023-01-30T04:25:32.667Z,3.20
2023-01-30T04:28:02.361Z,3.20
2023-01-30T04:30:37.188Z,3.20
2023-01-30T04:33:35.324Z,3.20
2023-01-30T04:36:07.425Z,3.10
2023-01-30T04:38:37.884Z,3.10
2023-01-30T04:41:07.474Z,3.10
2023-01-30T04:43:39.113Z,3.10
2023-01-30T04:46:20.694Z,3.10
2023-01-30T04:48:49.428Z,3.10
2023-01-30T04:51:19.120Z,3.00
2023-01-30T04:53:50.673Z,3.00
2023-01-30T04:56:19.283Z,2.90
2023-01-30T04:58:50.225Z,2.90
2023-01-30T05:03:53.453Z,3.00
2023-01-30T05:06:22.143Z,3.00
2023-01-30T05:08:53.507Z,3.00
2023-01-30T05:11:23.136Z,2.80
2023-01-30T05:13:52.241Z,2.80
2023-01-30T05:16:22.563Z,2.70
2023-01-30T05:18:58.552Z,2.70
2023-01-30T05:21:29.063Z,2.70
2023-01-30T05:23:59.520Z,2.70
2023-01-30T05:26:28.310Z,2.60
2023-01-30T05:28:59.088Z,2.60
2023-01-30T05:31:27.705Z,2.60
2023-01-30T05:33:56.433Z,2.50
2023-01-30T05:36:25.626Z,2.50
2023-01-30T05:38:54.658Z,2.50
2023-01-30T05:41:24.607Z,2.40
2023-01-30T05:43:53.396Z,2.40
2023-01-30T05:46:23.051Z,2.40
2023-01-30T05:48:51.875Z,2.40
2023-01-30T05:51:22.430Z,2.40
2023-01-30T05:53:51.552Z,2.40
2023-01-30T05:56:21.208Z,2.40
2023-01-30T05:58:55.742Z,2.40
2023-01-30T06:01:25.298Z,2.40
2023-01-30T06:03:54.688Z,2.40
2023-01-30T06:06:23.607Z,2.40
2023-01-30T06:08:54.756Z,2.30
2023-01-30T06:11:24.699Z,2.40
2023-01-30T06:13:54.770Z,2.30
2023-01-30T06:16:23.432Z,2.30
2023-01-30T06:18:53.146Z,2.30
2023-01-30T06:21:21.447Z,2.20
2023-01-30T06:23:52.121Z,2.20
2023-01-30T06:26:20.694Z,2.20
2023-01-30T06:28:49.985Z,2.20
2023-01-30T06:31:20.013Z,2.20
2023-01-30T06:33:49.508Z,2.20
2023-01-30T06:36:18.185Z,2.20
2023-01-30T06:38:48.846Z,2.20
2023-01-30T06:41:18.461Z,2.20
2023-01-30T06:43:47.158Z,2.10
2023-01-30T06:46:15.759Z,2.10
2023-01-30T06:48:45.693Z,2.10
2023-01-30T06:51:15.504Z,2.10
2023-01-30T06:53:43.775Z,2.10
2023-01-30T06:56:13.480Z,2.00
2023-01-30T06:58:41.740Z,2.00
2023-01-30T07:01:10.208Z,2.10
2023-01-30T07:03:38.979Z,2.00
2023-01-30T07:06:09.158Z,2.00
2023-01-30T07:08:42.083Z,2.00
2023-01-30T07:11:10.910Z,2.00
2023-01-30T07:13:39.414Z,1.90
2023-01-30T07:16:08.912Z,1.90
2023-01-30T07:18:37.482Z,1.90
2023-01-30T07:21:06.174Z,1.90
2023-01-30T07:23:36.128Z,1.90
2023-01-30T07:26:05.581Z,1.90
2023-01-30T07:28:34.067Z,1.90
2023-01-30T07:31:03.338Z,1.90
2023-01-30T07:33:31.895Z,1.90
2023-01-30T07:36:00.734Z,1.90
2023-01-30T07:38:29.249Z,1.90
2023-01-30T07:41:00.405Z,1.90
2023-01-30T07:43:28.992Z,1.80
2023-01-30T07:45:57.524Z,1.90
2023-01-30T07:48:26.172Z,1.90
2023-01-30T07:50:57.758Z,1.90
2023-01-30T07:53:26.285Z,1.90
2023-01-30T07:55:54.801Z,1.90
2023-01-30T07:58:24.741Z,1.80
2023-01-30T08:00:57.283Z,1.90
2023-01-30T08:03:25.859Z,1.80
2023-01-30T08:05:54.738Z,1.90
2023-01-30T08:08:23.278Z,1.90
2023-01-30T08:10:52.019Z,1.90
2023-01-30T08:13:20.554Z,1.90
2023-01-30T08:15:51.043Z,1.90
2023-01-30T08:18:19.596Z,1.90
2023-01-30T08:20:48.122Z,1.90
2023-01-30T08:23:16.673Z,1.90
2023-01-30T08:25:45.358Z,2.00
2023-01-30T08:28:13.892Z,2.00
2023-01-30T08:30:43.462Z,1.90
2023-01-30T08:33:13.407Z,1.90
2023-01-30T08:35:42.290Z,1.90
2023-01-30T08:38:10.888Z,1.90
2023-01-30T08:40:39.928Z,2.00
2023-01-30T08:43:09.048Z,2.00
2023-01-30T08:45:37.699Z,1.90
2023-01-30T08:48:07.577Z,1.90
2023-01-30T08:50:37.468Z,1.90
2023-01-30T08:53:07.135Z,2.00
2023-01-30T08:55:35.735Z,2.00
2023-01-30T08:58:04.251Z,2.00
2023-01-30T09:00:32.847Z,2.00
2023-01-30T09:03:02.108Z,2.00
2023-01-30T09:05:31.078Z,2.00
2023-01-30T09:08:01.300Z,2.00
2023-01-30T09:10:30.508Z,2.00
2023-01-30T09:12:59.288Z,2.00
2023-01-30T09:15:27.833Z,2.00
2023-01-30T09:17:56.376Z,2.00
2023-01-30T09:20:25.875Z,2.00
2023-01-30T09:22:54.575Z,2.00
2023-01-30T09:25:24.491Z,2.00
2023-01-30T09:27:53.170Z,2.00
2023-01-30T09:30:22.329Z,2.10
2023-01-30T09:32:52.053Z,2.10
2023-01-30T09:35:20.772Z,2.10
2023-01-30T09:37:50.036Z,2.10
2023-01-30T09:40:25.155Z,2.10
2023-01-30T09:43:35.252Z,2.10
2023-01-30T09:46:26.156Z,2.20
2023-01-30T09:49:02.801Z,2.30
2023-01-30T09:51:45.577Z,2.30
2023-01-30T09:54:22.252Z,2.30
2023-01-30T09:56:56.998Z,2.30
2023-01-30T09:59:31.792Z,2.30
2023-01-30T10:02:16.831Z,2.40
2023-01-30T10:05:00.664Z,2.30
2023-01-30T10:07:40.113Z,2.40
2023-01-30T10:10:18.225Z,2.40
2023-01-30T10:12:58.384Z,2.40
2023-01-30T10:15:49.371Z,2.50
2023-01-30T10:19:01.190Z,2.50
2023-01-30T10:21:41.498Z,2.50
2023-01-30T10:24:27.959Z,2.50
2023-01-30T10:26:58.415Z,2.50
2023-01-30T10:29:32.800Z,2.50
2023-01-30T10:32:08.173Z,2.60
2023-01-30T10:34:40.789Z,2.60
2023-01-30T10:37:13.530Z,2.60
2023-01-30T10:39:55.138Z,2.60
2023-01-30T10:42:30.594Z,2.60
2023-01-30T10:45:04.515Z,2.60
2023-01-30T10:47:48.100Z,2.60
2023-01-30T10:50:20.776Z,2.70
2023-01-30T10:52:56.445Z,2.70
2023-01-30T10:55:38.144Z,2.60
2023-01-30T10:58:15.519Z,2.60
2023-01-30T11:00:48.134Z,2.70
2023-01-30T11:03:26.082Z,2.70
2023-01-30T11:06:01.045Z,2.70
2023-01-30T11:08:31.309Z,2.70
2023-01-30T11:11:00.850Z,2.70
2023-01-30T11:13:31.711Z,2.80
2023-01-30T11:16:05.370Z,2.80
2023-01-30T11:19:18.374Z,2.80
2023-01-30T11:21:42.086Z,2.80
2023-01-30T11:24:18.367Z,2.80
2023-01-30T11:26:48.739Z,2.80
2023-01-30T11:29:26.126Z,2.90
2023-01-30T11:31:56.019Z,2.90
2023-01-30T11:34:25.439Z,2.80
2023-01-30T11:36:55.407Z,2.90
2023-01-30T11:39:29.674Z,2.90
2023-01-30T11:42:02.014Z,2.90
2023-01-30T11:44:32.838Z,2.90
2023-01-30T11:47:03.633Z,3.00
2023-01-30T11:51:31.856Z,3.00
2023-01-30T11:52:30.013Z,3.00
2023-01-30T11:55:05.571Z,3.00
2023-01-30T11:57:42.950Z,3.00
2023-01-30T12:00:19.084Z,3.10
2023-01-30T12:02:49.254Z,3.10
2023-01-30T12:05:26.938Z,3.10
2023-01-30T12:08:14.946Z,3.10
2023-01-30T12:10:44.851Z,3.10
2023-01-30T12:13:19.989Z,3.20
2023-01-30T12:15:53.004Z,3.20
2023-01-30T12:18:27.367Z,3.20
2023-01-30T12:21:01.205Z,3.20
2023-01-30T12:23:39.676Z,3.20
2023-01-30T12:26:15.664Z,3.20
2023-01-30T12:28:50.740Z,3.30
2023-01-30T12:31:25.381Z,3.30
2023-01-30T12:33:55.437Z,3.30
2023-01-30T12:36:34.979Z,3.30
2023-01-30T12:39:27.650Z,3.30
2023-01-30T12:42:16.564Z,3.30
2023-01-30T12:44:59.760Z,3.30
2023-01-30T12:47:45.535Z,3.30
2023-01-30T12:50:34.872Z,3.30
2023-01-30T12:53:25.500Z,3.40
2023-01-30T12:56:06.515Z,3.40
2023-01-30T12:58:43.800Z,3.70
2023-01-30T13:03:59.559Z,3.40
2023-01-30T13:07:01.100Z,3.50
2023-01-30T13:09:47.771Z,3.50
2023-01-30T13:12:24.637Z,3.50
2023-01-30T13:15:01.480Z,3.50
2023-01-30T13:17:46.877Z,3.50
2023-01-30T13:20:33.113Z,3.50
2023-01-30T13:23:07.152Z,3.50
2023-01-30T13:25:42.424Z,3.50
2023-01-30T13:28:17.530Z,3.50
2023-01-30T13:30:49.254Z,3.50
2023-01-30T13:33:22.953Z,3.50
2023-01-30T13:35:55.344Z,3.50
2023-01-30T13:38:27.188Z,3.40
2023-01-30T13:40:59.077Z,3.40
2023-01-30T13:43:35.884Z,3.50
2023-01-30T13:46:09.252Z,3.50
2023-01-30T13:48:50.982Z,3.50
2023-01-30T13:51:28.072Z,3.40
2023-01-30T13:54:02.261Z,3.40
2023-01-30T13:56:41.757Z,3.40
2023-01-30T13:59:22.627Z,3.40
2023-01-30T14:02:17.650Z,3.40
2023-01-30T14:04:48.564Z,3.40
2023-01-30T14:07:22.982Z,3.40
2023-01-30T14:10:03.070Z,3.40
2023-01-30T14:12:36.733Z,3.40
2023-01-30T14:15:24.200Z,3.40
2023-01-30T14:18:07.410Z,3.40
2023-01-30T14:20:37.252Z,3.50
2023-01-30T14:23:06.386Z,3.50
2023-01-30T14:25:49.771Z,3.50
2023-01-30T14:28:52.781Z,3.40
2023-01-30T14:31:56.198Z,3.50
2023-01-30T14:35:03.823Z,3.40
2023-01-30T14:37:49.559Z,3.40
2023-01-30T14:40:36.410Z,3.40
2023-01-30T14:43:41.429Z,3.40
2023-01-30T14:46:54.517Z,3.40
2023-01-30T14:49:32.477Z,3.50
2023-01-30T14:52:01.359Z,3.40
2023-01-30T14:54:42.132Z,3.40
2023-01-30T14:57:32.686Z,3.40
2023-01-30T15:00:17.184Z,3.40
2023-01-30T15:02:53.735Z,3.40
2023-01-30T15:05:30.848Z,3.40
2023-01-30T15:08:06.704Z,3.40
2023-01-30T15:11:05.914Z,3.40
2023-01-30T15:13:48.620Z,3.40
2023-01-30T15:16:37.871Z,3.40
2023-01-30T15:19:29.851Z,3.30
2023-01-30T15:22:12.836Z,3.30
2023-01-30T15:25:21.355Z,3.30
2023-01-30T15:28:00.612Z,3.30
2023-01-30T15:30:45.716Z,3.30
2023-01-30T15:33:29.190Z,3.20
2023-01-30T15:35:58.897Z,3.30
2023-01-30T15:38:31.211Z,3.30
2023-01-30T15:41:02.794Z,3.30
2023-01-30T15:43:57.559Z,3.30
2023-01-30T15:46:35.201Z,3.30
2023-01-30T15:49:20.788Z,3.20
2023-01-30T15:51:49.639Z,3.20
2023-01-30T15:54:22.315Z,3.20
2023-01-30T15:56:51.708Z,3.20
2023-01-30T15:59:32.787Z,3.20
2023-01-30T16:02:04.261Z,3.20
2023-01-30T16:04:33.139Z,3.20
2023-01-30T16:07:14.955Z,3.20
2023-01-30T16:10:07.016Z,3.20
2023-01-30T16:12:41.094Z,3.20
2023-01-30T16:15:19.839Z,3.20
2023-01-30T16:17:59.495Z,3.20
2023-01-30T16:20:28.406Z,3.10
2023-01-30T16:22:57.370Z,3.10
2023-01-30T16:25:34.604Z,3.10
2023-01-30T16:28:03.675Z,3.10
2023-01-30T16:30:32.695Z,3.10
2023-01-30T16:33:10.803Z,3.10
2023-01-30T16:35:46.021Z,3.00
2023-01-30T16:38:37.780Z,3.00
2023-01-30T16:41:08.196Z,3.00
2023-01-30T16:43:39.295Z,3.00
2023-01-30T16:46:46.395Z,3.00
2023-01-30T16:49:24.685Z,3.10
2023-01-30T16:52:03.128Z,3.00
2023-01-30T16:54:35.343Z,3.00
2023-01-30T16:57:06.146Z,3.00
2023-01-30T16:59:36.682Z,3.10
2023-01-30T17:02:08.776Z,3.00
2023-01-30T17:04:41.482Z,3.00
2023-01-30T17:07:35.835Z,3.00
2023-01-30T17:10:04.785Z,3.00
2023-01-30T17:12:50.906Z,3.00
2023-01-30T17:15:34.903Z,3.00
2023-01-30T17:18:04.257Z,3.00
2023-01-30T17:20:43.293Z,3.00
2023-01-30T17:23:19.995Z,3.00
2023-01-30T17:25:50.247Z,3.00
2023-01-30T17:28:24.611Z,3.00
2023-01-30T17:30:54.026Z,3.00
2023-01-30T17:33:23.137Z,3.00
2023-01-30T17:35:52.615Z,3.00
2023-01-30T17:38:21.552Z,3.00
2023-01-30T17:40:51.697Z,3.00
2023-01-30T17:43:22.036Z,3.00
2023-01-30T17:45:51.436Z,3.00
2023-01-30T17:48:20.248Z,3.00
2023-01-30T17:50:48.891Z,3.00
2023-01-30T17:53:18.666Z,3.00
2023-01-30T17:55:47.540Z,3.00
2023-01-30T17:58:18.466Z,3.00
2023-01-30T18:00:48.791Z,3.00
2023-01-30T18:03:17.592Z,3.00
2023-01-30T18:05:46.720Z,3.00
2023-01-30T18:08:15.755Z,3.00
2023-01-30T18:10:44.645Z,3.10
2023-01-30T18:13:13.399Z,3.10
2023-01-30T18:15:42.176Z,3.10
2023-01-30T18:18:16.366Z,3.10
2023-01-30T18:20:47.540Z,3.10
2023-01-30T18:23:16.597Z,3.10
2023-01-30T18:25:45.258Z,3.10
2023-01-30T18:28:14.388Z,3.10
2023-01-30T18:30:43.747Z,3.00
2023-01-30T18:33:14.286Z,3.10
2023-01-30T18:35:43.671Z,3.10
2023-01-30T18:38:12.193Z,3.10
2023-01-30T18:40:41.076Z,3.10
2023-01-30T18:43:09.749Z,3.00
2023-01-30T18:45:38.562Z,3.10
2023-01-30T18:48:07.880Z,3.10
2023-01-30T18:50:38.696Z,3.10
2023-01-30T18:53:08.598Z,3.00
2023-01-30T18:55:37.532Z,3.00
2023-01-30T18:58:06.455Z,3.00
2023-01-30T19:00:35.526Z,3.00
2023-01-30T19:03:04.351Z,3.00
2023-01-30T19:05:36.757Z,3.00
2023-01-30T19:08:07.192Z,3.00
2023-01-30T19:10:36.311Z,2.90
2023-01-30T19:13:22.799Z,2.90
2023-01-30T19:15:51.399Z,2.80
2023-01-30T19:18:20.527Z,2.80
2023-01-30T19:20:49.321Z,2.80
2023-01-30T19:23:19.286Z,2.80
2023-01-30T19:25:54.839Z,2.80
2023-01-30T19:28:23.650Z,2.80
2023-01-30T19:30:52.539Z,2.80
2023-01-30T19:33:22.041Z,2.90
2023-01-30T19:35:51.128Z,2.90
2023-01-30T19:38:21.241Z,2.90
2023-01-30T19:40:49.943Z,2.90
2023-01-30T19:43:18.499Z,2.90
2023-01-30T19:45:47.842Z,2.90
2023-01-30T19:48:16.504Z,2.90
2023-01-30T19:50:45.251Z,2.90
2023-01-30T19:53:13.815Z,3.00
2023-01-30T19:55:43.982Z,2.90
2023-01-30T19:58:12.763Z,2.90
2023-01-30T20:00:41.358Z,3.00
2023-01-30T20:03:13.045Z,3.00
2023-01-30T20:05:41.753Z,3.00
2023-01-30T20:08:21.791Z,3.00
2023-01-30T20:11:03.868Z,3.00
2023-01-30T20:13:32.692Z,3.00
2023-01-30T20:16:06.280Z,3.10
2023-01-30T20:18:38.255Z,3.10
2023-01-30T20:21:09.033Z,3.00
2023-01-30T20:23:38.548Z,3.00
2023-01-30T20:26:10.089Z,3.00
2023-01-30T20:28:39.005Z,3.00
2023-01-30T20:31:10.018Z,3.00
2023-01-30T20:33:40.024Z,3.00
2023-01-30T20:36:11.478Z,3.00
2023-01-30T20:38:41.692Z,2.90
2023-01-30T20:41:13.600Z,2.90
2023-01-30T20:43:44.958Z,2.90
2023-01-30T20:46:16.128Z,3.00
2023-01-30T20:48:45.934Z,3.00
2023-01-30T20:51:17.198Z,3.00
2023-01-30T20:53:50.448Z,3.00
2023-01-30T20:56:21.544Z,3.00
2023-01-30T20:58:51.879Z,3.00
2023-01-30T21:01:23.757Z,3.10
2023-01-30T21:03:55.130Z,3.10
2023-01-30T21:06:41.588Z,3.10
2023-01-30T21:09:14.661Z,3.10
2023-01-30T21:11:49.807Z,3.10
2023-01-30T21:14:19.837Z,3.20
2023-01-30T21:16:51.815Z,3.10
2023-01-30T21:19:22.054Z,3.10
2023-01-30T21:21:56.689Z,3.10
2023-01-30T21:24:27.798Z,3.10
2023-01-30T21:27:02.241Z,3.10
2023-01-30T21:29:31.340Z,3.10
2023-01-30T21:32:00.497Z,3.10
2023-01-30T21:34:29.676Z,3.10
2023-01-30T21:37:17.258Z,3.10
2023-01-30T21:40:03.316Z,3.10
2023-01-30T21:42:47.134Z,3.00
2023-01-30T21:45:16.593Z,3.10
2023-01-30T21:47:45.410Z,3.10
2023-01-30T21:50:14.046Z,3.10
2023-01-30T21:52:42.587Z,3.10
2023-01-30T21:55:11.487Z,3.10
2023-01-30T21:57:41.446Z,3.10
2023-01-30T22:00:11.358Z,3.10
2023-01-30T22:02:40.194Z,3.10
2023-01-30T22:05:10.012Z,3.00
2023-01-30T22:07:38.698Z,3.00
2023-01-30T22:10:07.736Z,3.00
2023-01-30T22:21:11.015Z,2.90
2023-01-30T22:23:41.452Z,2.80
2023-01-30T22:26:11.102Z,2.80
2023-01-30T22:28:39.742Z,2.70
2023-01-30T22:31:10.553Z,2.70
2023-01-30T22:33:40.592Z,2.70
2023-01-30T22:36:11.824Z,2.60
2023-01-30T22:38:46.103Z,2.60
2023-01-30T22:41:17.450Z,2.60
2023-01-30T22:43:47.820Z,2.60
2023-01-30T22:46:18.027Z,2.60
2023-01-30T22:48:47.116Z,2.60
2023-01-30T22:51:19.775Z,2.60
2023-01-30T22:53:51.444Z,2.60
2023-01-30T22:56:22.228Z,2.60
2023-01-30T22:58:51.511Z,2.60
2023-01-30T23:01:22.173Z,2.60
2023-01-30T23:03:55.380Z,2.60
2023-01-30T23:06:26.247Z,2.60
2023-01-30T23:08:56.800Z,2.60
2023-01-30T23:11:28.791Z,2.60
2023-01-30T23:13:59.732Z,2.60
2023-01-30T23:16:29.417Z,2.60
2023-01-30T23:18:57.069Z,2.60
2023-01-30T23:21:29.975Z,2.60
2023-01-30T23:24:00.396Z,2.60
2023-01-30T23:26:30.864Z,2.60
2023-01-30T23:29:01.240Z,2.50
2023-01-30T23:31:30.614Z,2.50
2023-01-30T23:34:00.961Z,2.50
2023-01-30T23:36:31.977Z,2.50
2023-01-30T23:39:02.613Z,2.50
2023-01-30T23:41:33.559Z,2.40
2023-01-30T23:44:03.037Z,2.40
2023-01-30T23:46:34.474Z,2.40
2023-01-30T23:49:06.305Z,2.40
2023-01-30T23:51:39.064Z,2.30
2023-01-30T23:54:08.605Z,2.30
2023-01-30T23:56:40.179Z,2.30
2023-01-30T23:59:12.601Z,2.30
